sensor_id;sensor_type;location;lat;lon;timestamp;pressure;altitude;pressure_sealevel;temperature;humidity
13594;BME280;6449;47.666;9.160;2023-08-30T00:00:56;96356.00;;;13.35;100.00
13594;BME280;6449;47.666;9.160;2023-08-30T00:05:51;96350.06;;;13.33;100.00
13594;BME280;6449;47.666;9.160;2023-08-30T00:10:44;96349.25;;;13.33;100.00
13594;BME280;6449;47.666;9.160;2023-08-30T00:15:38;96360.06;;;13.30;100.00
13594;BME280;6449;47.666;9.160;2023-08-30T00:20:32;96352.00;;;13.31;100.00
13594;BME280;6449;47.666;9.160;2023-08-30T00:25:27;96351.88;;;13.33;100.00
13594;BME280;6449;47.666;9.160;2023-08-30T00:30:20;96364.88;;;13.34;100.00
13594;BME280;6449;47.666;9.160;2023-08-30T00:35:14;96359.53;;;13.26;100.00
13594;BME280;6449;47.666;9.160;2023-08-30T00:40:09;96364.94;;;13.25;100.00
13594;BME280;6449;47.666;9.160;2023-08-30T00:45:05;96351.78;;;13.25;100.00
13594;BME280;6449;47.666;9.160;2023-08-30T00:49:58;96356.06;;;13.26;100.00
13594;BME280;6449;47.666;9.160;2023-08-30T00:54:52;96337.63;;;13.26;100.00
13594;BME280;6449;47.666;9.160;2023-08-30T00:59:45;96338.19;;;13.29;100.00
13594;BME280;6449;47.666;9.160;2023-08-30T01:04:40;96331.81;;;13.32;100.00
13594;BME280;6449;47.666;9.160;2023-08-30T01:09:33;96327.50;;;13.31;100.00
13594;BME280;6449;47.666;9.160;2023-08-30T01:14:34;96328.31;;;13.31;100.00
13594;BME280;6449;47.666;9.160;2023-08-30T01:19:46;96317.78;;;13.31;100.00
13594;BME280;6449;47.666;9.160;2023-08-30T01:24:52;96309.75;;;13.33;100.00
13594;BME280;6449;47.666;9.160;2023-08-30T01:29:58;96307.25;;;13.31;100.00
13594;BME280;6449;47.666;9.160;2023-08-30T01:34:52;96308.09;;;13.32;100.00
13594;BME280;6449;47.666;9.160;2023-08-30T01:39:46;96302.16;;;13.30;100.00
13594;BME280;6449;47.666;9.160;2023-08-30T01:44:41;96314.47;;;13.29;100.00
13594;BME280;6449;47.666;9.160;2023-08-30T01:49:39;96311.31;;;13.26;100.00
13594;BME280;6449;47.666;9.160;2023-08-30T01:54:32;96306.91;;;13.26;100.00
13594;BME280;6449;47.666;9.160;2023-08-30T01:59:26;96313.09;;;13.25;100.00
13594;BME280;6449;47.666;9.160;2023-08-30T02:04:19;96314.91;;;13.25;100.00
13594;BME280;6449;47.666;9.160;2023-08-30T02:09:21;96316.88;;;13.23;100.00
13594;BME280;6449;47.666;9.160;2023-08-30T02:14:20;96309.38;;;13.18;100.00
13594;BME280;6449;47.666;9.160;2023-08-30T02:19:15;96306.22;;;13.15;100.00
13594;BME280;6449;47.666;9.160;2023-08-30T02:24:14;96303.88;;;13.11;100.00
13594;BME280;6449;47.666;9.160;2023-08-30T02:29:07;96302.53;;;13.07;100.00
13594;BME280;6449;47.666;9.160;2023-08-30T02:34:01;96298.91;;;13.08;100.00
13594;BME280;6449;47.666;9.160;2023-08-30T02:38:55;96300.56;;;13.09;100.00
13594;BME280;6449;47.666;9.160;2023-08-30T02:43:49;96292.22;;;13.14;100.00
13594;BME280;6449;47.666;9.160;2023-08-30T02:48:43;96302.25;;;13.10;100.00
13594;BME280;6449;47.666;9.160;2023-08-30T02:53:36;96302.91;;;13.13;100.00
13594;BME280;6449;47.666;9.160;2023-08-30T02:58:29;96294.78;;;13.06;100.00
13594;BME280;6449;47.666;9.160;2023-08-30T03:03:26;96293.38;;;13.11;100.00
13594;BME280;6449;47.666;9.160;2023-08-30T03:08:20;96290.72;;;13.11;100.00
13594;BME280;6449;47.666;9.160;2023-08-30T03:13:13;96286.84;;;13.16;100.00
13594;BME280;6449;47.666;9.160;2023-08-30T03:18:07;96287.13;;;13.13;100.00
13594;BME280;6449;47.666;9.160;2023-08-30T03:23:02;96288.09;;;13.11;100.00
13594;BME280;6449;47.666;9.160;2023-08-30T03:27:56;96287.78;;;13.15;100.00
13594;BME280;6449;47.666;9.160;2023-08-30T03:32:49;96276.44;;;13.14;100.00
13594;BME280;6449;47.666;9.160;2023-08-30T03:37:42;96276.00;;;13.19;100.00
13594;BME280;6449;47.666;9.160;2023-08-30T03:42:37;96271.34;;;13.13;100.00
13594;BME280;6449;47.666;9.160;2023-08-30T03:47:31;96274.19;;;13.19;100.00
13594;BME280;6449;47.666;9.160;2023-08-30T03:52:24;96278.38;;;13.22;100.00
13594;BME280;6449;47.666;9.160;2023-08-30T03:57:17;96276.44;;;13.14;100.00
13594;BME280;6449;47.666;9.160;2023-08-30T04:02:12;96277.41;;;13.13;100.00
13594;BME280;6449;47.666;9.160;2023-08-30T04:07:05;96274.78;;;13.13;100.00
13594;BME280;6449;47.666;9.160;2023-08-30T04:11:59;96281.56;;;13.16;100.00
13594;BME280;6449;47.666;9.160;2023-08-30T04:16:52;96279.22;;;13.13;100.00
13594;BME280;6449;47.666;9.160;2023-08-30T04:21:47;96281.56;;;13.16;100.00
13594;BME280;6449;47.666;9.160;2023-08-30T04:26:40;96285.84;;;13.17;100.00
13594;BME280;6449;47.666;9.160;2023-08-30T04:31:34;96291.13;;;13.17;100.00
13594;BME280;6449;47.666;9.160;2023-08-30T04:36:27;96291.13;;;13.17;100.00
13594;BME280;6449;47.666;9.160;2023-08-30T04:41:22;96289.47;;;13.16;100.00
13594;BME280;6449;47.666;9.160;2023-08-30T04:46:15;96298.19;;;13.16;100.00
13594;BME280;6449;47.666;9.160;2023-08-30T04:51:08;96301.47;;;13.00;100.00
13594;BME280;6449;47.666;9.160;2023-08-30T04:56:11;96292.81;;;13.08;100.00
13594;BME280;6449;47.666;9.160;2023-08-30T05:01:06;96293.06;;;13.15;100.00
13594;BME280;6449;47.666;9.160;2023-08-30T05:06:01;96293.06;;;13.15;100.00
13594;BME280;6449;47.666;9.160;2023-08-30T05:10:54;96295.69;;;13.15;100.00
13594;BME280;6449;47.666;9.160;2023-08-30T05:15:47;96292.78;;;13.18;100.00
13594;BME280;6449;47.666;9.160;2023-08-30T05:20:42;96286.34;;;13.02;100.00
13594;BME280;6449;47.666;9.160;2023-08-30T05:25:35;96290.34;;;13.06;100.00
13594;BME280;6449;47.666;9.160;2023-08-30T05:30:29;96285.84;;;13.17;100.00
13594;BME280;6449;47.666;9.160;2023-08-30T05:35:22;96285.53;;;13.20;100.00
13594;BME280;6449;47.666;9.160;2023-08-30T05:40:17;96279.19;;;13.22;100.00
13594;BME280;6449;47.666;9.160;2023-08-30T05:45:11;96276.97;;;13.27;100.00
13594;BME280;6449;47.666;9.160;2023-08-30T05:50:05;96278.44;;;13.30;100.00
13594;BME280;6449;47.666;9.160;2023-08-30T05:54:59;96284.41;;;13.32;100.00
13594;BME280;6449;47.666;9.160;2023-08-30T05:59:53;96290.34;;;13.34;100.00
13594;BME280;6449;47.666;9.160;2023-08-30T06:04:47;96296.38;;;13.44;100.00
13594;BME280;6449;47.666;9.160;2023-08-30T06:09:40;96294.78;;;13.51;100.00
13594;BME280;6449;47.666;9.160;2023-08-30T06:14:33;96299.78;;;13.54;100.00
13594;BME280;6449;47.666;9.160;2023-08-30T06:19:28;96305.44;;;13.59;100.00
13594;BME280;6449;47.666;9.160;2023-08-30T06:24:22;96308.94;;;13.68;100.00
13594;BME280;6449;47.666;9.160;2023-08-30T06:29:15;96307.41;;;13.75;100.00
13594;BME280;6449;47.666;9.160;2023-08-30T06:34:09;96306.25;;;13.78;100.00
13594;BME280;6449;47.666;9.160;2023-08-30T06:39:04;96304.16;;;13.81;100.00
13594;BME280;6449;47.666;9.160;2023-08-30T06:43:57;96304.38;;;13.88;100.00
13594;BME280;6449;47.666;9.160;2023-08-30T06:48:51;96308.03;;;13.95;100.00
13594;BME280;6449;47.666;9.160;2023-08-30T06:53:44;96299.75;;;14.08;100.00
13594;BME280;6449;47.666;9.160;2023-08-30T06:58:40;96297.50;;;14.13;100.00
13594;BME280;6449;47.666;9.160;2023-08-30T07:03:34;96297.53;;;14.21;100.00
13594;BME280;6449;47.666;9.160;2023-08-30T07:08:27;96286.91;;;14.31;100.00
13594;BME280;6449;47.666;9.160;2023-08-30T07:13:20;96290.28;;;14.41;100.00
13594;BME280;6449;47.666;9.160;2023-08-30T07:18:15;96279.81;;;14.49;100.00
13594;BME280;6449;47.666;9.160;2023-08-30T07:23:08;96279.38;;;14.62;100.00
13594;BME280;6449;47.666;9.160;2023-08-30T07:28:03;96275.47;;;14.66;100.00
13594;BME280;6449;47.666;9.160;2023-08-30T07:32:57;96275.53;;;14.82;100.00
13594;BME280;6449;47.666;9.160;2023-08-30T07:37:52;96270.69;;;15.04;100.00
13594;BME280;6449;47.666;9.160;2023-08-30T07:42:45;96266.88;;;15.06;100.00
13594;BME280;6449;47.666;9.160;2023-08-30T07:47:39;96272.16;;;15.06;100.00
13594;BME280;6449;47.666;9.160;2023-08-30T07:52:32;96278.94;;;15.09;100.00
13594;BME280;6449;47.666;9.160;2023-08-30T07:57:38;96276.22;;;15.35;100.00
13594;BME280;6449;47.666;9.160;2023-08-30T08:02:31;96273.84;;;15.90;100.00
13594;BME280;6449;47.666;9.160;2023-08-30T08:07:25;96280.66;;;16.09;100.00
13594;BME280;6449;47.666;9.160;2023-08-30T08:12:20;96286.44;;;16.05;100.00
13594;BME280;6449;47.666;9.160;2023-08-30T08:17:15;96288.72;;;16.08;100.00
13594;BME280;6449;47.666;9.160;2023-08-30T08:22:08;96297.31;;;16.18;100.00
13594;BME280;6449;47.666;9.160;2023-08-30T08:27:02;96300.47;;;16.13;100.00
13594;BME280;6449;47.666;9.160;2023-08-30T08:31:55;96290.88;;;16.12;100.00
13594;BME280;6449;47.666;9.160;2023-08-30T08:36:50;96304.09;;;15.88;100.00
13594;BME280;6449;47.666;9.160;2023-08-30T08:41:45;96307.34;;;15.65;100.00
13594;BME280;6449;47.666;9.160;2023-08-30T08:46:40;96295.75;;;15.50;100.00
13594;BME280;6449;47.666;9.160;2023-08-30T08:51:35;96301.94;;;15.25;100.00
13594;BME280;6449;47.666;9.160;2023-08-30T08:56:31;96298.44;;;15.16;100.00
13594;BME280;6449;47.666;9.160;2023-08-30T09:01:26;96296.16;;;15.21;100.00
13594;BME280;6449;47.666;9.160;2023-08-30T09:06:29;96291.47;;;15.57;100.00
13594;BME280;6449;47.666;9.160;2023-08-30T09:11:22;96283.28;;;16.09;100.00
13594;BME280;6449;47.666;9.160;2023-08-30T09:16:32;96293.84;;;16.42;100.00
13594;BME280;6449;47.666;9.160;2023-08-30T09:21:26;96308.69;;;16.67;100.00
13594;BME280;6449;47.666;9.160;2023-08-30T09:26:20;96291.34;;;17.12;100.00
13594;BME280;6449;47.666;9.160;2023-08-30T09:31:17;96303.47;;;16.98;100.00
13594;BME280;6449;47.666;9.160;2023-08-30T09:36:15;96297.53;;;17.05;100.00
13594;BME280;6449;47.666;9.160;2023-08-30T09:41:09;96295.97;;;17.18;100.00
13594;BME280;6449;47.666;9.160;2023-08-30T09:46:04;96310.66;;;17.29;100.00
13594;BME280;6449;47.666;9.160;2023-08-30T09:50:58;96307.16;;;17.37;100.00
13594;BME280;6449;47.666;9.160;2023-08-30T09:55:54;96315.13;;;17.28;100.00
13594;BME280;6449;47.666;9.160;2023-08-30T10:00:48;96316.44;;;17.33;100.00
13594;BME280;6449;47.666;9.160;2023-08-30T10:05:42;96298.53;;;17.35;100.00
13594;BME280;6449;47.666;9.160;2023-08-30T10:10:37;96299.66;;;17.40;100.00
13594;BME280;6449;47.666;9.160;2023-08-30T10:15:36;96308.72;;;17.54;100.00
13594;BME280;6449;47.666;9.160;2023-08-30T10:20:33;96300.38;;;17.65;100.00
13594;BME280;6449;47.666;9.160;2023-08-30T10:25:33;96300.06;;;17.60;100.00
13594;BME280;6449;47.666;9.160;2023-08-30T10:30:28;96301.13;;;17.82;100.00
13594;BME280;6449;47.666;9.160;2023-08-30T10:35:25;96284.56;;;18.03;100.00
13594;BME280;6449;47.666;9.160;2023-08-30T10:40:18;96301.81;;;17.99;100.00
13594;BME280;6449;47.666;9.160;2023-08-30T10:45:13;96300.47;;;17.72;100.00
13594;BME280;6449;47.666;9.160;2023-08-30T10:50:10;96273.50;;;17.68;100.00
13594;BME280;6449;47.666;9.160;2023-08-30T10:55:10;96257.06;;;17.50;100.00
13594;BME280;6449;47.666;9.160;2023-08-30T11:00:09;96259.81;;;17.57;100.00
13594;BME280;6449;47.666;9.160;2023-08-30T11:05:06;96266.03;;;17.41;100.00
13594;BME280;6449;47.666;9.160;2023-08-30T11:10:00;96274.38;;;17.29;100.00
13594;BME280;6449;47.666;9.160;2023-08-30T11:14:55;96263.56;;;17.39;100.00
13594;BME280;6449;47.666;9.160;2023-08-30T11:19:50;96261.31;;;17.59;100.00
13594;BME280;6449;47.666;9.160;2023-08-30T11:24:47;96275.41;;;17.51;100.00
13594;BME280;6449;47.666;9.160;2023-08-30T11:29:41;96270.41;;;17.57;100.00
13594;BME280;6449;47.666;9.160;2023-08-30T11:34:36;96240.22;;;17.89;100.00
13594;BME280;6449;47.666;9.160;2023-08-30T11:39:29;96257.03;;;18.04;100.00
13594;BME280;6449;47.666;9.160;2023-08-30T11:44:23;96263.13;;;18.27;100.00
13594;BME280;6449;47.666;9.160;2023-08-30T11:49:17;96276.56;;;18.26;100.00
13594;BME280;6449;47.666;9.160;2023-08-30T11:54:12;96265.03;;;18.19;100.00
13594;BME280;6449;47.666;9.160;2023-08-30T11:59:05;96251.56;;;18.20;100.00
13594;BME280;6449;47.666;9.160;2023-08-30T12:04:08;96251.50;;;17.91;100.00
13594;BME280;6449;47.666;9.160;2023-08-30T12:09:02;96239.00;;;17.76;100.00
13594;BME280;6449;47.666;9.160;2023-08-30T12:14:03;96231.16;;;17.83;100.00
13594;BME280;6449;47.666;9.160;2023-08-30T12:19:08;96227.44;;;17.92;100.00
13594;BME280;6449;47.666;9.160;2023-08-30T12:24:02;96244.38;;;17.91;100.00
13594;BME280;6449;47.666;9.160;2023-08-30T12:28:58;96237.16;;;18.00;100.00
13594;BME280;6449;47.666;9.160;2023-08-30T12:33:54;96228.59;;;18.13;100.00
13594;BME280;6449;47.666;9.160;2023-08-30T12:38:51;96244.97;;;18.16;100.00
13594;BME280;6449;47.666;9.160;2023-08-30T12:43:45;96232.56;;;18.31;100.00
13594;BME280;6449;47.666;9.160;2023-08-30T12:48:38;96241.63;;;18.37;100.00
13594;BME280;6449;47.666;9.160;2023-08-30T12:53:33;96223.91;;;18.38;100.00
13594;BME280;6449;47.666;9.160;2023-08-30T12:58:26;96223.03;;;18.37;100.00
13594;BME280;6449;47.666;9.160;2023-08-30T13:03:20;96240.91;;;18.28;100.00
13594;BME280;6449;47.666;9.160;2023-08-30T13:08:13;96226.69;;;18.21;100.00
13594;BME280;6449;47.666;9.160;2023-08-30T13:13:08;96230.06;;;18.15;100.00
13594;BME280;6449;47.666;9.160;2023-08-30T13:18:02;96245.78;;;18.02;100.00
13594;BME280;6449;47.666;9.160;2023-08-30T13:22:55;96247.13;;;17.98;100.00
13594;BME280;6449;47.666;9.160;2023-08-30T13:27:48;96257.16;;;17.88;100.00
13594;BME280;6449;47.666;9.160;2023-08-30T13:32:43;96230.44;;;17.89;100.00
13594;BME280;6449;47.666;9.160;2023-08-30T13:37:37;96205.03;;;17.95;100.00
13594;BME280;6449;47.666;9.160;2023-08-30T13:42:30;96207.47;;;17.82;100.00
13594;BME280;6449;47.666;9.160;2023-08-30T13:47:24;96192.09;;;17.77;100.00
13594;BME280;6449;47.666;9.160;2023-08-30T13:52:19;96192.94;;;17.77;100.00
13594;BME280;6449;47.666;9.160;2023-08-30T13:57:13;96213.41;;;17.84;100.00
13594;BME280;6449;47.666;9.160;2023-08-30T14:02:06;96211.88;;;17.74;100.00
13594;BME280;6449;47.666;9.160;2023-08-30T14:06:59;96185.44;;;17.81;100.00
13594;BME280;6449;47.666;9.160;2023-08-30T14:11:54;96192.06;;;17.85;100.00
13594;BME280;6449;47.666;9.160;2023-08-30T14:16:48;96204.41;;;17.93;100.00
13594;BME280;6449;47.666;9.160;2023-08-30T14:21:41;96209.06;;;17.91;100.00
13594;BME280;6449;47.666;9.160;2023-08-30T14:26:34;96219.53;;;17.84;100.00
13594;BME280;6449;47.666;9.160;2023-08-30T14:31:29;96186.84;;;17.92;100.00
13594;BME280;6449;47.666;9.160;2023-08-30T14:36:23;96190.75;;;17.81;100.00
13594;BME280;6449;47.666;9.160;2023-08-30T14:41:16;96182.81;;;17.81;100.00
13594;BME280;6449;47.666;9.160;2023-08-30T14:46:10;96186.75;;;17.85;100.00
13594;BME280;6449;47.666;9.160;2023-08-30T14:51:10;96206.13;;;17.86;100.00
13594;BME280;6449;47.666;9.160;2023-08-30T14:56:04;96197.38;;;18.00;100.00
13594;BME280;6449;47.666;9.160;2023-08-30T15:00:59;96205.16;;;18.16;100.00
13594;BME280;6449;47.666;9.160;2023-08-30T15:05:53;96233.38;;;18.17;100.00
13594;BME280;6449;47.666;9.160;2023-08-30T15:10:49;96211.72;;;18.28;100.00
13594;BME280;6449;47.666;9.160;2023-08-30T15:15:43;96244.84;;;18.32;100.00
13594;BME280;6449;47.666;9.160;2023-08-30T15:20:37;96220.69;;;18.27;100.00
13594;BME280;6449;47.666;9.160;2023-08-30T15:25:30;96231.84;;;18.23;100.00
13594;BME280;6449;47.666;9.160;2023-08-30T15:30:25;96249.78;;;18.36;100.00
13594;BME280;6449;47.666;9.160;2023-08-30T15:35:19;96216.63;;;18.31;100.00
13594;BME280;6449;47.666;9.160;2023-08-30T15:40:12;96227.53;;;18.22;100.00
13594;BME280;6449;47.666;9.160;2023-08-30T15:45:07;96237.44;;;18.05;100.00
13594;BME280;6449;47.666;9.160;2023-08-30T15:50:02;96252.22;;;17.85;100.00
13594;BME280;6449;47.666;9.160;2023-08-30T15:54:56;96255.78;;;17.69;100.00
13594;BME280;6449;47.666;9.160;2023-08-30T16:00:01;96252.53;;;17.59;100.00
13594;BME280;6449;47.666;9.160;2023-08-30T16:04:57;96252.69;;;17.57;100.00
13594;BME280;6449;47.666;9.160;2023-08-30T16:09:52;96260.00;;;17.55;100.00
13594;BME280;6449;47.666;9.160;2023-08-30T16:14:47;96250.03;;;17.57;100.00
13594;BME280;6449;47.666;9.160;2023-08-30T16:19:41;96237.69;;;17.49;100.00
13594;BME280;6449;47.666;9.160;2023-08-30T16:24:34;96231.88;;;17.46;100.00
13594;BME280;6449;47.666;9.160;2023-08-30T16:29:29;96244.50;;;17.44;100.00
13594;BME280;6449;47.666;9.160;2023-08-30T16:34:23;96258.47;;;17.38;100.00
13594;BME280;6449;47.666;9.160;2023-08-30T16:39:17;96260.44;;;17.36;100.00
13594;BME280;6449;47.666;9.160;2023-08-30T16:44:11;96231.00;;;17.31;100.00
13594;BME280;6449;47.666;9.160;2023-08-30T16:49:06;96237.28;;;17.29;100.00
13594;BME280;6449;47.666;9.160;2023-08-30T16:54:01;96253.72;;;17.25;100.00
13594;BME280;6449;47.666;9.160;2023-08-30T16:58:55;96233.03;;;17.20;100.00
13594;BME280;6449;47.666;9.160;2023-08-30T17:03:48;96225.94;;;17.21;100.00
13594;BME280;6449;47.666;9.160;2023-08-30T17:08:45;96215.19;;;17.14;100.00
13594;BME280;6449;47.666;9.160;2023-08-30T17:13:40;96219.03;;;17.12;100.00
13594;BME280;6449;47.666;9.160;2023-08-30T17:18:34;96233.59;;;17.08;100.00
13594;BME280;6449;47.666;9.160;2023-08-30T17:23:28;96218.91;;;17.05;100.00
13594;BME280;6449;47.666;9.160;2023-08-30T17:28:23;96235.13;;;17.02;100.00
13594;BME280;6449;47.666;9.160;2023-08-30T17:33:16;96230.81;;;17.01;100.00
13594;BME280;6449;47.666;9.160;2023-08-30T17:38:10;96226.22;;;16.95;100.00
13594;BME280;6449;47.666;9.160;2023-08-30T17:43:06;96228.06;;;16.86;100.00
13594;BME280;6449;47.666;9.160;2023-08-30T17:48:07;96232.22;;;16.81;100.00
13594;BME280;6449;47.666;9.160;2023-08-30T17:53:00;96230.09;;;16.76;100.00
13594;BME280;6449;47.666;9.160;2023-08-30T17:57:54;96232.44;;;16.71;100.00
13594;BME280;6449;47.666;9.160;2023-08-30T18:02:48;96241.84;;;16.65;100.00
13594;BME280;6449;47.666;9.160;2023-08-30T18:07:43;96252.13;;;16.60;100.00
13594;BME280;6449;47.666;9.160;2023-08-30T18:12:37;96258.41;;;16.51;100.00
13594;BME280;6449;47.666;9.160;2023-08-30T18:17:30;96263.41;;;16.46;100.00
13594;BME280;6449;47.666;9.160;2023-08-30T18:22:24;96259.09;;;16.45;100.00
13594;BME280;6449;47.666;9.160;2023-08-30T18:27:19;96275.97;;;16.44;100.00
13594;BME280;6449;47.666;9.160;2023-08-30T18:32:12;96271.19;;;16.39;100.00
13594;BME280;6449;47.666;9.160;2023-08-30T18:37:06;96279.47;;;16.28;100.00
13594;BME280;6449;47.666;9.160;2023-08-30T18:42:00;96279.28;;;16.30;100.00
13594;BME280;6449;47.666;9.160;2023-08-30T18:46:54;96287.56;;;16.27;100.00
13594;BME280;6449;47.666;9.160;2023-08-30T18:51:49;96298.78;;;16.29;100.00
13594;BME280;6449;47.666;9.160;2023-08-30T18:56:47;96291.88;;;16.28;100.00
13594;BME280;6449;47.666;9.160;2023-08-30T19:01:40;96286.75;;;16.26;100.00
13594;BME280;6449;47.666;9.160;2023-08-30T19:06:35;96301.13;;;16.23;100.00
13594;BME280;6449;47.666;9.160;2023-08-30T19:11:29;96316.66;;;16.18;100.00
13594;BME280;6449;47.666;9.160;2023-08-30T19:16:22;96300.13;;;16.16;100.00
13594;BME280;6449;47.666;9.160;2023-08-30T19:21:16;96299.97;;;16.10;100.00
13594;BME280;6449;47.666;9.160;2023-08-30T19:26:13;96297.81;;;16.13;100.00
13594;BME280;6449;47.666;9.160;2023-08-30T19:31:08;96295.34;;;16.12;100.00
13594;BME280;6449;47.666;9.160;2023-08-30T19:36:01;96293.69;;;16.11;100.00
13594;BME280;6449;47.666;9.160;2023-08-30T19:40:55;96305.44;;;16.00;100.00
13594;BME280;6449;47.666;9.160;2023-08-30T19:46:01;96300.63;;;15.95;100.00
13594;BME280;6449;47.666;9.160;2023-08-30T19:50:55;96311.34;;;15.86;100.00
13594;BME280;6449;47.666;9.160;2023-08-30T19:55:49;96303.09;;;15.81;100.00
13594;BME280;6449;47.666;9.160;2023-08-30T20:00:44;96316.78;;;15.76;100.00
13594;BME280;6449;47.666;9.160;2023-08-30T20:05:46;96324.53;;;15.69;100.00
13594;BME280;6449;47.666;9.160;2023-08-30T20:10:41;96320.25;;;15.68;100.00
13594;BME280;6449;47.666;9.160;2023-08-30T20:15:34;96318.59;;;15.76;100.00
13594;BME280;6449;47.666;9.160;2023-08-30T20:20:34;96325.06;;;15.73;100.00
13594;BME280;6449;47.666;9.160;2023-08-30T20:25:29;96319.28;;;15.78;100.00
13594;BME280;6449;47.666;9.160;2023-08-30T20:30:23;96324.56;;;15.78;100.00
13594;BME280;6449;47.666;9.160;2023-08-30T20:35:16;96327.88;;;15.80;100.00
13594;BME280;6449;47.666;9.160;2023-08-30T20:40:11;96329.03;;;15.77;100.00
13594;BME280;6449;47.666;9.160;2023-08-30T20:45:07;96334.09;;;15.62;100.00
13594;BME280;6449;47.666;9.160;2023-08-30T20:50:01;96336.72;;;15.62;100.00
13594;BME280;6449;47.666;9.160;2023-08-30T20:54:55;96344.97;;;15.51;100.00
13594;BME280;6449;47.666;9.160;2023-08-30T20:59:49;96359.25;;;15.32;100.00
13594;BME280;6449;47.666;9.160;2023-08-30T21:04:44;96352.13;;;15.33;100.00
13594;BME280;6449;47.666;9.160;2023-08-30T21:09:38;96355.13;;;15.38;100.00
13594;BME280;6449;47.666;9.160;2023-08-30T21:14:31;96356.94;;;15.37;100.00
13594;BME280;6449;47.666;9.160;2023-08-30T21:19:24;96350.00;;;15.36;100.00
13594;BME280;6449;47.666;9.160;2023-08-30T21:24:19;96363.97;;;15.20;100.00
13594;BME280;6449;47.666;9.160;2023-08-30T21:29:13;96359.72;;;15.28;100.00
13594;BME280;6449;47.666;9.160;2023-08-30T21:34:06;96365.91;;;15.10;100.00
13594;BME280;6449;47.666;9.160;2023-08-30T21:38:59;96378.13;;;15.11;100.00
13594;BME280;6449;47.666;9.160;2023-08-30T21:43:54;96377.47;;;15.09;100.00
13594;BME280;6449;47.666;9.160;2023-08-30T21:48:47;96380.72;;;15.03;100.00
13594;BME280;6449;47.666;9.160;2023-08-30T21:53:41;96375.19;;;15.14;100.00
13594;BME280;6449;47.666;9.160;2023-08-30T21:58:34;96375.47;;;15.11;100.00
13594;BME280;6449;47.666;9.160;2023-08-30T22:03:29;96378.81;;;15.13;100.00
13594;BME280;6449;47.666;9.160;2023-08-30T22:08:22;96379.31;;;15.17;100.00
13594;BME280;6449;47.666;9.160;2023-08-30T22:13:15;96379.09;;;15.10;100.00
13594;BME280;6449;47.666;9.160;2023-08-30T22:18:09;96385.28;;;14.93;100.00
13594;BME280;6449;47.666;9.160;2023-08-30T22:23:05;96395.16;;;14.91;100.00
13594;BME280;6449;47.666;9.160;2023-08-30T22:27:58;96389.06;;;14.90;100.00
13594;BME280;6449;47.666;9.160;2023-08-30T22:32:54;96383.00;;;14.98;100.00
13594;BME280;6449;47.666;9.160;2023-08-30T22:37:48;96379.94;;;14.85;100.00
13594;BME280;6449;47.666;9.160;2023-08-30T22:42:43;96385.53;;;14.56;100.00
13594;BME280;6449;47.666;9.160;2023-08-30T22:47:37;96381.38;;;14.53;100.00
13594;BME280;6449;47.666;9.160;2023-08-30T22:52:30;96376.84;;;14.63;100.00
13594;BME280;6449;47.666;9.160;2023-08-30T22:57:23;96370.94;;;14.70;100.00
13594;BME280;6449;47.666;9.160;2023-08-30T23:02:18;96369.66;;;14.74;100.00
13594;BME280;6449;47.666;9.160;2023-08-30T23:07:12;96376.91;;;14.72;100.00
13594;BME280;6449;47.666;9.160;2023-08-30T23:12:06;96389.41;;;14.70;100.00
13594;BME280;6449;47.666;9.160;2023-08-30T23:17:00;96392.56;;;14.73;100.00
13594;BME280;6449;47.666;9.160;2023-08-30T23:21:56;96393.09;;;14.77;100.00
13594;BME280;6449;47.666;9.160;2023-08-30T23:26:49;96392.22;;;14.94;100.00
13594;BME280;6449;47.666;9.160;2023-08-30T23:31:42;96402.06;;;14.84;100.00
13594;BME280;6449;47.666;9.160;2023-08-30T23:36:36;96408.16;;;14.84;100.00
13594;BME280;6449;47.666;9.160;2023-08-30T23:41:31;96403.03;;;14.83;100.00
13594;BME280;6449;47.666;9.160;2023-08-30T23:46:24;96406.31;;;14.77;100.00
13594;BME280;6449;47.666;9.160;2023-08-30T23:51:17;96416.50;;;14.72;100.00
13594;BME280;6449;47.666;9.160;2023-08-30T23:56:11;96420.25;;;14.69;100.00
